sensor_id;sensor_type;location;lat;lon;timestamp;P1;durP1;ratioP1;P2;durP2;ratioP2
10659;SDS011;5378;53.206;13.316;2023-07-20T00:00:44;3.93;;;3.53;;
10659;SDS011;5378;53.206;13.316;2023-07-20T00:03:31;7.50;;;4.40;;
10659;SDS011;5378;53.206;13.316;2023-07-20T00:06:20;4.47;;;3.57;;
10659;SDS011;5378;53.206;13.316;2023-07-20T00:09:07;6.33;;;4.40;;
10659;SDS011;5378;53.206;13.316;2023-07-20T00:11:54;4.10;;;3.33;;
10659;SDS011;5378;53.206;13.316;2023-07-20T00:14:42;3.80;;;3.50;;
10659;SDS011;5378;53.206;13.316;2023-07-20T00:17:29;4.20;;;3.40;;
10659;SDS011;5378;53.206;13.316;2023-07-20T00:20:16;5.03;;;3.50;;
10659;SDS011;5378;53.206;13.316;2023-07-20T00:23:04;3.30;;;3.00;;
10659;SDS011;5378;53.206;13.316;2023-07-20T00:25:52;4.97;;;3.37;;
10659;SDS011;5378;53.206;13.316;2023-07-20T00:28:39;4.77;;;3.00;;
10659;SDS011;5378;53.206;13.316;2023-07-20T00:31:26;3.53;;;3.13;;
10659;SDS011;5378;53.206;13.316;2023-07-20T00:34:14;3.80;;;2.90;;
10659;SDS011;5378;53.206;13.316;2023-07-20T00:37:02;4.03;;;3.10;;
10659;SDS011;5378;53.206;13.316;2023-07-20T00:39:50;2.70;;;2.47;;
10659;SDS011;5378;53.206;13.316;2023-07-20T00:42:37;3.77;;;2.30;;
10659;SDS011;5378;53.206;13.316;2023-07-20T00:45:25;5.37;;;2.47;;
10659;SDS011;5378;53.206;13.316;2023-07-20T00:48:13;2.93;;;2.63;;
10659;SDS011;5378;53.206;13.316;2023-07-20T00:51:01;6.20;;;2.63;;
10659;SDS011;5378;53.206;13.316;2023-07-20T00:53:48;2.67;;;2.47;;
10659;SDS011;5378;53.206;13.316;2023-07-20T00:56:37;3.03;;;2.60;;
10659;SDS011;5378;53.206;13.316;2023-07-20T00:59:25;4.57;;;3.10;;
10659;SDS011;5378;53.206;13.316;2023-07-20T01:02:12;3.60;;;2.90;;
10659;SDS011;5378;53.206;13.316;2023-07-20T01:04:59;4.37;;;2.90;;
10659;SDS011;5378;53.206;13.316;2023-07-20T01:07:50;3.37;;;2.43;;
10659;SDS011;5378;53.206;13.316;2023-07-20T01:10:40;4.33;;;3.10;;
10659;SDS011;5378;53.206;13.316;2023-07-20T01:13:32;3.27;;;2.90;;
10659;SDS011;5378;53.206;13.316;2023-07-20T01:16:20;4.33;;;2.63;;
10659;SDS011;5378;53.206;13.316;2023-07-20T01:19:07;6.87;;;3.10;;
10659;SDS011;5378;53.206;13.316;2023-07-20T01:21:55;2.97;;;2.07;;
10659;SDS011;5378;53.206;13.316;2023-07-20T01:25:08;2.40;;;2.20;;
10659;SDS011;5378;53.206;13.316;2023-07-20T01:28:15;4.80;;;2.47;;
10659;SDS011;5378;53.206;13.316;2023-07-20T01:31:24;4.00;;;2.60;;
10659;SDS011;5378;53.206;13.316;2023-07-20T01:34:12;6.00;;;2.50;;
10659;SDS011;5378;53.206;13.316;2023-07-20T01:37:03;3.10;;;2.43;;
10659;SDS011;5378;53.206;13.316;2023-07-20T01:39:52;4.17;;;2.73;;
10659;SDS011;5378;53.206;13.316;2023-07-20T01:42:43;3.13;;;2.63;;
10659;SDS011;5378;53.206;13.316;2023-07-20T01:45:31;4.00;;;2.70;;
10659;SDS011;5378;53.206;13.316;2023-07-20T01:48:20;4.77;;;2.77;;
10659;SDS011;5378;53.206;13.316;2023-07-20T01:51:07;3.93;;;2.10;;
10659;SDS011;5378;53.206;13.316;2023-07-20T01:53:54;6.50;;;2.63;;
10659;SDS011;5378;53.206;13.316;2023-07-20T01:56:41;4.17;;;2.60;;
10659;SDS011;5378;53.206;13.316;2023-07-20T01:59:28;3.40;;;2.73;;
10659;SDS011;5378;53.206;13.316;2023-07-20T02:02:16;9.23;;;3.00;;
10659;SDS011;5378;53.206;13.316;2023-07-20T02:05:05;5.43;;;2.57;;
10659;SDS011;5378;53.206;13.316;2023-07-20T02:07:52;3.90;;;2.60;;
10659;SDS011;5378;53.206;13.316;2023-07-20T02:10:40;3.20;;;2.87;;
10659;SDS011;5378;53.206;13.316;2023-07-20T02:13:27;6.07;;;2.77;;
10659;SDS011;5378;53.206;13.316;2023-07-20T02:16:15;3.50;;;2.63;;
10659;SDS011;5378;53.206;13.316;2023-07-20T02:19:02;4.17;;;2.90;;
10659;SDS011;5378;53.206;13.316;2023-07-20T02:21:53;3.80;;;2.90;;
10659;SDS011;5378;53.206;13.316;2023-07-20T02:24:40;6.67;;;3.20;;
10659;SDS011;5378;53.206;13.316;2023-07-20T02:27:27;4.40;;;2.97;;
10659;SDS011;5378;53.206;13.316;2023-07-20T02:30:14;3.10;;;2.30;;
10659;SDS011;5378;53.206;13.316;2023-07-20T02:33:02;3.00;;;2.27;;
10659;SDS011;5378;53.206;13.316;2023-07-20T02:35:50;4.00;;;2.60;;
10659;SDS011;5378;53.206;13.316;2023-07-20T02:38:38;4.77;;;3.00;;
10659;SDS011;5378;53.206;13.316;2023-07-20T02:41:26;3.90;;;2.90;;
10659;SDS011;5378;53.206;13.316;2023-07-20T02:44:13;3.93;;;2.50;;
10659;SDS011;5378;53.206;13.316;2023-07-20T02:47:00;5.07;;;2.70;;
10659;SDS011;5378;53.206;13.316;2023-07-20T02:49:47;5.60;;;3.03;;
10659;SDS011;5378;53.206;13.316;2023-07-20T02:52:34;3.70;;;3.07;;
10659;SDS011;5378;53.206;13.316;2023-07-20T02:55:23;4.00;;;3.13;;
10659;SDS011;5378;53.206;13.316;2023-07-20T02:58:10;8.20;;;2.73;;
10659;SDS011;5378;53.206;13.316;2023-07-20T03:00:57;3.40;;;2.80;;
10659;SDS011;5378;53.206;13.316;2023-07-20T03:03:44;4.30;;;3.17;;
10659;SDS011;5378;53.206;13.316;2023-07-20T03:06:32;5.27;;;2.90;;
10659;SDS011;5378;53.206;13.316;2023-07-20T03:09:21;2.20;;;2.00;;
10659;SDS011;5378;53.206;13.316;2023-07-20T03:12:10;4.87;;;2.73;;
10659;SDS011;5378;53.206;13.316;2023-07-20T03:14:57;2.83;;;2.40;;
10659;SDS011;5378;53.206;13.316;2023-07-20T03:17:44;3.33;;;1.97;;
10659;SDS011;5378;53.206;13.316;2023-07-20T03:20:33;7.20;;;2.73;;
10659;SDS011;5378;53.206;13.316;2023-07-20T03:23:23;3.17;;;2.87;;
10659;SDS011;5378;53.206;13.316;2023-07-20T03:26:12;3.67;;;2.10;;
10659;SDS011;5378;53.206;13.316;2023-07-20T03:29:00;4.33;;;2.57;;
10659;SDS011;5378;53.206;13.316;2023-07-20T03:31:48;6.67;;;2.90;;
10659;SDS011;5378;53.206;13.316;2023-07-20T03:34:36;3.60;;;2.70;;
10659;SDS011;5378;53.206;13.316;2023-07-20T03:37:23;2.43;;;2.23;;
10659;SDS011;5378;53.206;13.316;2023-07-20T03:40:11;3.23;;;2.40;;
10659;SDS011;5378;53.206;13.316;2023-07-20T03:42:59;2.80;;;2.50;;
10659;SDS011;5378;53.206;13.316;2023-07-20T03:45:49;3.30;;;2.70;;
10659;SDS011;5378;53.206;13.316;2023-07-20T03:48:36;5.47;;;2.63;;
10659;SDS011;5378;53.206;13.316;2023-07-20T03:51:23;7.47;;;2.80;;
10659;SDS011;5378;53.206;13.316;2023-07-20T03:54:11;2.27;;;2.00;;
10659;SDS011;5378;53.206;13.316;2023-07-20T03:56:58;4.57;;;2.43;;
10659;SDS011;5378;53.206;13.316;2023-07-20T03:59:46;3.90;;;2.57;;
10659;SDS011;5378;53.206;13.316;2023-07-20T04:02:37;3.23;;;2.30;;
10659;SDS011;5378;53.206;13.316;2023-07-20T04:05:24;4.90;;;2.80;;
10659;SDS011;5378;53.206;13.316;2023-07-20T04:08:11;7.73;;;2.20;;
10659;SDS011;5378;53.206;13.316;2023-07-20T04:11:00;4.80;;;2.70;;
10659;SDS011;5378;53.206;13.316;2023-07-20T04:13:47;2.57;;;1.90;;
10659;SDS011;5378;53.206;13.316;2023-07-20T04:16:34;4.10;;;2.73;;
10659;SDS011;5378;53.206;13.316;2023-07-20T04:19:24;5.03;;;2.30;;
10659;SDS011;5378;53.206;13.316;2023-07-20T04:22:10;2.00;;;1.80;;
10659;SDS011;5378;53.206;13.316;2023-07-20T04:25:01;2.13;;;1.70;;
10659;SDS011;5378;53.206;13.316;2023-07-20T04:27:48;3.63;;;2.23;;
10659;SDS011;5378;53.206;13.316;2023-07-20T04:30:37;2.77;;;2.27;;
10659;SDS011;5378;53.206;13.316;2023-07-20T04:33:25;2.73;;;2.10;;
10659;SDS011;5378;53.206;13.316;2023-07-20T04:36:16;2.60;;;1.90;;
10659;SDS011;5378;53.206;13.316;2023-07-20T04:39:05;2.97;;;1.93;;
10659;SDS011;5378;53.206;13.316;2023-07-20T04:42:02;2.60;;;2.00;;
10659;SDS011;5378;53.206;13.316;2023-07-20T04:44:49;2.90;;;2.00;;
10659;SDS011;5378;53.206;13.316;2023-07-20T04:47:36;1.90;;;1.70;;
10659;SDS011;5378;53.206;13.316;2023-07-20T04:50:23;3.03;;;1.87;;
10659;SDS011;5378;53.206;13.316;2023-07-20T04:53:12;2.90;;;2.07;;
10659;SDS011;5378;53.206;13.316;2023-07-20T04:55:59;3.30;;;2.37;;
10659;SDS011;5378;53.206;13.316;2023-07-20T04:58:47;9.23;;;3.20;;
10659;SDS011;5378;53.206;13.316;2023-07-20T05:01:34;3.30;;;3.00;;
10659;SDS011;5378;53.206;13.316;2023-07-20T05:04:22;3.10;;;2.47;;
10659;SDS011;5378;53.206;13.316;2023-07-20T05:07:09;5.47;;;3.13;;
10659;SDS011;5378;53.206;13.316;2023-07-20T05:09:57;4.30;;;2.27;;
10659;SDS011;5378;53.206;13.316;2023-07-20T05:12:44;3.30;;;2.50;;
10659;SDS011;5378;53.206;13.316;2023-07-20T05:15:32;3.37;;;2.17;;
10659;SDS011;5378;53.206;13.316;2023-07-20T05:18:22;4.03;;;2.67;;
10659;SDS011;5378;53.206;13.316;2023-07-20T05:21:09;2.30;;;2.10;;
10659;SDS011;5378;53.206;13.316;2023-07-20T05:23:56;14.00;;;2.77;;
10659;SDS011;5378;53.206;13.316;2023-07-20T05:26:45;2.53;;;2.33;;
10659;SDS011;5378;53.206;13.316;2023-07-20T05:29:32;2.33;;;2.13;;
10659;SDS011;5378;53.206;13.316;2023-07-20T05:32:19;4.07;;;2.87;;
10659;SDS011;5378;53.206;13.316;2023-07-20T05:35:07;4.03;;;2.80;;
10659;SDS011;5378;53.206;13.316;2023-07-20T05:37:56;4.20;;;2.70;;
10659;SDS011;5378;53.206;13.316;2023-07-20T05:40:44;2.70;;;2.10;;
10659;SDS011;5378;53.206;13.316;2023-07-20T05:43:34;7.23;;;3.10;;
10659;SDS011;5378;53.206;13.316;2023-07-20T05:46:20;6.33;;;2.53;;
10659;SDS011;5378;53.206;13.316;2023-07-20T05:49:10;5.77;;;2.40;;
10659;SDS011;5378;53.206;13.316;2023-07-20T05:51:56;3.90;;;2.60;;
10659;SDS011;5378;53.206;13.316;2023-07-20T05:54:44;2.50;;;2.30;;
10659;SDS011;5378;53.206;13.316;2023-07-20T05:57:31;3.73;;;2.37;;
10659;SDS011;5378;53.206;13.316;2023-07-20T06:00:19;4.57;;;2.30;;
10659;SDS011;5378;53.206;13.316;2023-07-20T06:03:11;3.37;;;2.00;;
10659;SDS011;5378;53.206;13.316;2023-07-20T06:05:59;3.93;;;2.13;;
10659;SDS011;5378;53.206;13.316;2023-07-20T06:08:46;4.23;;;2.50;;
10659;SDS011;5378;53.206;13.316;2023-07-20T06:11:33;4.97;;;2.13;;
10659;SDS011;5378;53.206;13.316;2023-07-20T06:14:20;2.17;;;1.63;;
10659;SDS011;5378;53.206;13.316;2023-07-20T06:17:08;4.00;;;1.67;;
10659;SDS011;5378;53.206;13.316;2023-07-20T06:19:55;4.60;;;1.70;;
10659;SDS011;5378;53.206;13.316;2023-07-20T06:22:44;1.80;;;1.53;;
10659;SDS011;5378;53.206;13.316;2023-07-20T06:25:31;2.73;;;1.60;;
10659;SDS011;5378;53.206;13.316;2023-07-20T06:28:18;2.23;;;1.50;;
10659;SDS011;5378;53.206;13.316;2023-07-20T06:31:05;1.73;;;1.33;;
10659;SDS011;5378;53.206;13.316;2023-07-20T06:33:53;2.30;;;1.50;;
10659;SDS011;5378;53.206;13.316;2023-07-20T06:36:40;1.33;;;1.23;;
10659;SDS011;5378;53.206;13.316;2023-07-20T06:39:27;1.60;;;1.00;;
10659;SDS011;5378;53.206;13.316;2023-07-20T06:42:17;2.63;;;1.47;;
10659;SDS011;5378;53.206;13.316;2023-07-20T06:45:04;1.70;;;1.10;;
10659;SDS011;5378;53.206;13.316;2023-07-20T06:47:52;1.17;;;1.00;;
10659;SDS011;5378;53.206;13.316;2023-07-20T06:50:41;1.20;;;0.80;;
10659;SDS011;5378;53.206;13.316;2023-07-20T06:53:30;1.27;;;1.00;;
10659;SDS011;5378;53.206;13.316;2023-07-20T06:56:17;2.30;;;1.00;;
10659;SDS011;5378;53.206;13.316;2023-07-20T06:59:04;1.53;;;1.10;;
10659;SDS011;5378;53.206;13.316;2023-07-20T07:01:51;1.43;;;0.97;;
10659;SDS011;5378;53.206;13.316;2023-07-20T07:04:39;1.97;;;0.90;;
10659;SDS011;5378;53.206;13.316;2023-07-20T07:07:27;3.00;;;1.00;;
10659;SDS011;5378;53.206;13.316;2023-07-20T07:10:15;0.70;;;0.60;;
10659;SDS011;5378;53.206;13.316;2023-07-20T07:13:02;1.10;;;1.00;;
10659;SDS011;5378;53.206;13.316;2023-07-20T07:15:50;2.83;;;0.70;;
10659;SDS011;5378;53.206;13.316;2023-07-20T07:18:37;2.00;;;1.10;;
10659;SDS011;5378;53.206;13.316;2023-07-20T07:21:25;0.80;;;0.70;;
10659;SDS011;5378;53.206;13.316;2023-07-20T07:24:14;1.13;;;1.03;;
10659;SDS011;5378;53.206;13.316;2023-07-20T07:27:04;1.27;;;0.80;;
10659;SDS011;5378;53.206;13.316;2023-07-20T07:29:51;1.07;;;0.70;;
10659;SDS011;5378;53.206;13.316;2023-07-20T07:32:38;0.77;;;0.60;;
10659;SDS011;5378;53.206;13.316;2023-07-20T07:35:26;0.97;;;0.60;;
10659;SDS011;5378;53.206;13.316;2023-07-20T07:38:13;4.33;;;0.70;;
10659;SDS011;5378;53.206;13.316;2023-07-20T07:41:10;1.20;;;0.90;;
10659;SDS011;5378;53.206;13.316;2023-07-20T07:43:57;1.43;;;1.03;;
10659;SDS011;5378;53.206;13.316;2023-07-20T07:46:44;1.97;;;0.90;;
10659;SDS011;5378;53.206;13.316;2023-07-20T07:49:31;1.60;;;0.80;;
10659;SDS011;5378;53.206;13.316;2023-07-20T07:52:18;0.70;;;0.60;;
10659;SDS011;5378;53.206;13.316;2023-07-20T07:55:06;4.80;;;1.00;;
10659;SDS011;5378;53.206;13.316;2023-07-20T07:57:55;1.07;;;0.70;;
10659;SDS011;5378;53.206;13.316;2023-07-20T08:00:42;1.47;;;0.70;;
10659;SDS011;5378;53.206;13.316;2023-07-20T08:03:29;1.00;;;0.60;;
10659;SDS011;5378;53.206;13.316;2023-07-20T08:06:16;1.23;;;1.03;;
10659;SDS011;5378;53.206;13.316;2023-07-20T08:09:03;0.70;;;0.50;;
10659;SDS011;5378;53.206;13.316;2023-07-20T08:11:50;1.00;;;0.37;;
10659;SDS011;5378;53.206;13.316;2023-07-20T08:14:39;0.80;;;0.67;;
10659;SDS011;5378;53.206;13.316;2023-07-20T08:17:27;4.20;;;0.70;;
10659;SDS011;5378;53.206;13.316;2023-07-20T08:20:15;1.47;;;0.90;;
10659;SDS011;5378;53.206;13.316;2023-07-20T08:23:02;0.70;;;0.60;;
10659;SDS011;5378;53.206;13.316;2023-07-20T08:25:49;0.80;;;0.50;;
10659;SDS011;5378;53.206;13.316;2023-07-20T08:28:36;1.83;;;0.43;;
10659;SDS011;5378;53.206;13.316;2023-07-20T08:31:25;0.70;;;0.50;;
10659;SDS011;5378;53.206;13.316;2023-07-20T08:34:15;0.90;;;0.50;;
10659;SDS011;5378;53.206;13.316;2023-07-20T08:37:09;0.77;;;0.53;;
10659;SDS011;5378;53.206;13.316;2023-07-20T08:39:56;0.80;;;0.60;;
10659;SDS011;5378;53.206;13.316;2023-07-20T08:42:44;1.43;;;0.50;;
10659;SDS011;5378;53.206;13.316;2023-07-20T08:45:32;1.90;;;0.70;;
10659;SDS011;5378;53.206;13.316;2023-07-20T08:48:22;1.10;;;0.50;;
10659;SDS011;5378;53.206;13.316;2023-07-20T08:51:10;1.47;;;0.43;;
10659;SDS011;5378;53.206;13.316;2023-07-20T08:53:59;5.43;;;0.43;;
10659;SDS011;5378;53.206;13.316;2023-07-20T08:56:47;1.00;;;0.70;;
10659;SDS011;5378;53.206;13.316;2023-07-20T08:59:34;3.33;;;1.13;;
10659;SDS011;5378;53.206;13.316;2023-07-20T09:02:24;1.40;;;0.67;;
10659;SDS011;5378;53.206;13.316;2023-07-20T09:05:14;4.73;;;0.80;;
10659;SDS011;5378;53.206;13.316;2023-07-20T09:08:02;1.43;;;1.33;;
10659;SDS011;5378;53.206;13.316;2023-07-20T09:10:49;1.63;;;0.57;;
10659;SDS011;5378;53.206;13.316;2023-07-20T09:13:36;0.97;;;0.60;;
10659;SDS011;5378;53.206;13.316;2023-07-20T09:16:24;0.60;;;0.50;;
10659;SDS011;5378;53.206;13.316;2023-07-20T09:19:12;1.13;;;0.63;;
10659;SDS011;5378;53.206;13.316;2023-07-20T09:22:02;2.30;;;0.47;;
10659;SDS011;5378;53.206;13.316;2023-07-20T09:24:52;0.70;;;0.50;;
10659;SDS011;5378;53.206;13.316;2023-07-20T09:27:40;1.47;;;0.43;;
10659;SDS011;5378;53.206;13.316;2023-07-20T09:30:29;1.97;;;0.70;;
10659;SDS011;5378;53.206;13.316;2023-07-20T09:33:19;1.87;;;0.90;;
10659;SDS011;5378;53.206;13.316;2023-07-20T09:36:11;0.83;;;0.60;;
10659;SDS011;5378;53.206;13.316;2023-07-20T09:39:09;1.10;;;0.70;;
10659;SDS011;5378;53.206;13.316;2023-07-20T09:41:59;1.10;;;0.60;;
10659;SDS011;5378;53.206;13.316;2023-07-20T09:44:49;3.60;;;0.83;;
10659;SDS011;5378;53.206;13.316;2023-07-20T09:47:38;0.83;;;0.57;;
10659;SDS011;5378;53.206;13.316;2023-07-20T09:50:26;1.00;;;0.43;;
10659;SDS011;5378;53.206;13.316;2023-07-20T09:53:13;1.07;;;0.60;;
10659;SDS011;5378;53.206;13.316;2023-07-20T09:56:01;2.30;;;0.73;;
10659;SDS011;5378;53.206;13.316;2023-07-20T09:58:49;1.13;;;0.60;;
10659;SDS011;5378;53.206;13.316;2023-07-20T10:01:36;0.97;;;0.70;;
10659;SDS011;5378;53.206;13.316;2023-07-20T10:04:26;1.93;;;0.50;;
10659;SDS011;5378;53.206;13.316;2023-07-20T10:07:16;2.53;;;0.43;;
10659;SDS011;5378;53.206;13.316;2023-07-20T10:10:06;0.90;;;0.40;;
10659;SDS011;5378;53.206;13.316;2023-07-20T10:12:58;0.80;;;0.43;;
10659;SDS011;5378;53.206;13.316;2023-07-20T10:15:50;1.10;;;0.50;;
10659;SDS011;5378;53.206;13.316;2023-07-20T10:18:41;1.03;;;0.60;;
10659;SDS011;5378;53.206;13.316;2023-07-20T10:21:35;0.60;;;0.40;;
10659;SDS011;5378;53.206;13.316;2023-07-20T10:24:34;0.90;;;0.60;;
10659;SDS011;5378;53.206;13.316;2023-07-20T10:27:22;0.70;;;0.40;;
10659;SDS011;5378;53.206;13.316;2023-07-20T10:30:11;3.83;;;0.67;;
10659;SDS011;5378;53.206;13.316;2023-07-20T10:32:59;1.83;;;0.63;;
10659;SDS011;5378;53.206;13.316;2023-07-20T10:35:52;1.77;;;0.80;;
10659;SDS011;5378;53.206;13.316;2023-07-20T10:38:40;1.23;;;0.50;;
10659;SDS011;5378;53.206;13.316;2023-07-20T10:41:28;0.80;;;0.60;;
10659;SDS011;5378;53.206;13.316;2023-07-20T10:44:20;1.30;;;0.70;;
10659;SDS011;5378;53.206;13.316;2023-07-20T10:47:10;0.60;;;0.40;;
10659;SDS011;5378;53.206;13.316;2023-07-20T10:49:59;1.47;;;0.50;;
10659;SDS011;5378;53.206;13.316;2023-07-20T10:52:51;1.37;;;0.50;;
10659;SDS011;5378;53.206;13.316;2023-07-20T10:55:54;5.80;;;1.13;;
10659;SDS011;5378;53.206;13.316;2023-07-20T10:58:55;1.27;;;0.60;;
10659;SDS011;5378;53.206;13.316;2023-07-20T11:01:43;0.80;;;0.53;;
10659;SDS011;5378;53.206;13.316;2023-07-20T11:04:39;0.90;;;0.70;;
10659;SDS011;5378;53.206;13.316;2023-07-20T11:07:36;6.90;;;1.03;;
10659;SDS011;5378;53.206;13.316;2023-07-20T11:10:24;1.33;;;0.60;;
10659;SDS011;5378;53.206;13.316;2023-07-20T11:13:21;7.80;;;0.70;;
10659;SDS011;5378;53.206;13.316;2023-07-20T11:16:09;1.60;;;0.90;;
10659;SDS011;5378;53.206;13.316;2023-07-20T11:18:57;3.57;;;0.60;;
10659;SDS011;5378;53.206;13.316;2023-07-20T11:21:47;2.67;;;1.00;;
10659;SDS011;5378;53.206;13.316;2023-07-20T11:24:44;0.77;;;0.50;;
10659;SDS011;5378;53.206;13.316;2023-07-20T11:27:32;0.70;;;0.43;;
10659;SDS011;5378;53.206;13.316;2023-07-20T11:30:19;0.80;;;0.60;;
10659;SDS011;5378;53.206;13.316;2023-07-20T11:33:07;0.70;;;0.60;;
10659;SDS011;5378;53.206;13.316;2023-07-20T11:35:55;1.87;;;0.50;;
10659;SDS011;5378;53.206;13.316;2023-07-20T11:38:43;0.87;;;0.57;;
10659;SDS011;5378;53.206;13.316;2023-07-20T11:41:32;1.80;;;0.90;;
10659;SDS011;5378;53.206;13.316;2023-07-20T11:44:20;1.53;;;0.93;;
10659;SDS011;5378;53.206;13.316;2023-07-20T11:47:12;4.50;;;1.10;;
10659;SDS011;5378;53.206;13.316;2023-07-20T11:50:02;1.20;;;0.63;;
10659;SDS011;5378;53.206;13.316;2023-07-20T11:52:50;1.63;;;0.80;;
10659;SDS011;5378;53.206;13.316;2023-07-20T11:55:39;2.00;;;0.60;;
10659;SDS011;5378;53.206;13.316;2023-07-20T11:58:27;1.00;;;0.77;;
10659;SDS011;5378;53.206;13.316;2023-07-20T12:01:16;1.10;;;0.83;;
10659;SDS011;5378;53.206;13.316;2023-07-20T12:04:05;6.60;;;0.80;;
10659;SDS011;5378;53.206;13.316;2023-07-20T12:06:53;0.77;;;0.60;;
10659;SDS011;5378;53.206;13.316;2023-07-20T12:09:40;2.33;;;0.80;;
10659;SDS011;5378;53.206;13.316;2023-07-20T12:12:39;0.90;;;0.80;;
10659;SDS011;5378;53.206;13.316;2023-07-20T12:15:27;3.33;;;1.00;;
10659;SDS011;5378;53.206;13.316;2023-07-20T12:18:16;0.90;;;0.60;;
10659;SDS011;5378;53.206;13.316;2023-07-20T12:21:03;2.30;;;0.93;;
10659;SDS011;5378;53.206;13.316;2023-07-20T12:23:51;0.90;;;0.77;;
10659;SDS011;5378;53.206;13.316;2023-07-20T12:26:39;0.80;;;0.80;;
10659;SDS011;5378;53.206;13.316;2023-07-20T12:29:27;0.90;;;0.80;;
10659;SDS011;5378;53.206;13.316;2023-07-20T12:32:14;1.87;;;1.00;;
10659;SDS011;5378;53.206;13.316;2023-07-20T12:35:01;1.00;;;0.63;;
10659;SDS011;5378;53.206;13.316;2023-07-20T12:37:48;1.30;;;0.80;;
10659;SDS011;5378;53.206;13.316;2023-07-20T12:40:37;1.30;;;1.10;;
10659;SDS011;5378;53.206;13.316;2023-07-20T12:43:24;3.23;;;1.10;;
10659;SDS011;5378;53.206;13.316;2023-07-20T12:46:13;3.13;;;1.10;;
10659;SDS011;5378;53.206;13.316;2023-07-20T12:49:00;0.83;;;0.60;;
10659;SDS011;5378;53.206;13.316;2023-07-20T12:51:47;1.97;;;0.80;;
10659;SDS011;5378;53.206;13.316;2023-07-20T12:54:34;3.00;;;1.03;;
10659;SDS011;5378;53.206;13.316;2023-07-20T12:57:21;4.00;;;0.93;;
10659;SDS011;5378;53.206;13.316;2023-07-20T13:00:09;2.20;;;1.67;;
10659;SDS011;5378;53.206;13.316;2023-07-20T13:02:58;2.47;;;1.00;;
10659;SDS011;5378;53.206;13.316;2023-07-20T13:05:51;2.20;;;1.00;;
10659;SDS011;5378;53.206;13.316;2023-07-20T13:08:41;1.23;;;1.00;;
10659;SDS011;5378;53.206;13.316;2023-07-20T13:11:28;1.20;;;1.10;;
10659;SDS011;5378;53.206;13.316;2023-07-20T13:14:16;1.20;;;0.97;;
10659;SDS011;5378;53.206;13.316;2023-07-20T13:17:03;2.00;;;1.10;;
10659;SDS011;5378;53.206;13.316;2023-07-20T13:19:51;2.20;;;1.17;;
10659;SDS011;5378;53.206;13.316;2023-07-20T13:22:39;2.23;;;1.00;;
10659;SDS011;5378;53.206;13.316;2023-07-20T13:25:27;3.50;;;1.20;;
10659;SDS011;5378;53.206;13.316;2023-07-20T13:28:14;3.00;;;1.20;;
10659;SDS011;5378;53.206;13.316;2023-07-20T13:31:01;2.03;;;1.17;;
10659;SDS011;5378;53.206;13.316;2023-07-20T13:33:48;3.40;;;1.23;;
10659;SDS011;5378;53.206;13.316;2023-07-20T13:36:39;1.67;;;1.50;;
10659;SDS011;5378;53.206;13.316;2023-07-20T13:39:28;1.77;;;1.57;;
10659;SDS011;5378;53.206;13.316;2023-07-20T13:42:15;11.50;;;4.77;;
10659;SDS011;5378;53.206;13.316;2023-07-20T13:45:04;2.10;;;1.40;;
10659;SDS011;5378;53.206;13.316;2023-07-20T13:47:52;1.37;;;0.80;;
10659;SDS011;5378;53.206;13.316;2023-07-20T13:50:39;1.23;;;1.00;;
10659;SDS011;5378;53.206;13.316;2023-07-20T13:53:28;2.40;;;1.10;;
10659;SDS011;5378;53.206;13.316;2023-07-20T13:56:18;1.40;;;1.20;;
10659;SDS011;5378;53.206;13.316;2023-07-20T13:59:05;2.23;;;0.90;;
10659;SDS011;5378;53.206;13.316;2023-07-20T14:01:52;10.27;;;1.80;;
10659;SDS011;5378;53.206;13.316;2023-07-20T14:04:59;2.90;;;1.40;;
10659;SDS011;5378;53.206;13.316;2023-07-20T14:07:50;2.30;;;1.00;;
10659;SDS011;5378;53.206;13.316;2023-07-20T14:10:38;1.20;;;0.70;;
10659;SDS011;5378;53.206;13.316;2023-07-20T14:13:28;2.23;;;1.13;;
10659;SDS011;5378;53.206;13.316;2023-07-20T14:16:22;1.20;;;0.93;;
10659;SDS011;5378;53.206;13.316;2023-07-20T14:19:10;1.50;;;0.80;;
10659;SDS011;5378;53.206;13.316;2023-07-20T14:21:58;1.27;;;1.03;;
10659;SDS011;5378;53.206;13.316;2023-07-20T14:24:45;1.27;;;1.17;;
10659;SDS011;5378;53.206;13.316;2023-07-20T14:27:34;1.30;;;1.03;;
10659;SDS011;5378;53.206;13.316;2023-07-20T14:30:22;4.20;;;1.23;;
10659;SDS011;5378;53.206;13.316;2023-07-20T14:33:09;1.20;;;1.10;;
10659;SDS011;5378;53.206;13.316;2023-07-20T14:35:56;0.90;;;0.70;;
10659;SDS011;5378;53.206;13.316;2023-07-20T14:38:44;2.30;;;1.17;;
10659;SDS011;5378;53.206;13.316;2023-07-20T14:41:31;1.47;;;0.93;;
10659;SDS011;5378;53.206;13.316;2023-07-20T14:44:20;2.70;;;0.97;;
10659;SDS011;5378;53.206;13.316;2023-07-20T14:47:07;1.67;;;1.03;;
10659;SDS011;5378;53.206;13.316;2023-07-20T14:49:58;1.40;;;1.10;;
10659;SDS011;5378;53.206;13.316;2023-07-20T14:52:46;3.90;;;0.90;;
10659;SDS011;5378;53.206;13.316;2023-07-20T14:55:34;0.97;;;0.60;;
10659;SDS011;5378;53.206;13.316;2023-07-20T14:58:21;1.77;;;1.00;;
10659;SDS011;5378;53.206;13.316;2023-07-20T15:01:09;1.17;;;0.90;;
10659;SDS011;5378;53.206;13.316;2023-07-20T15:03:56;1.30;;;0.80;;
10659;SDS011;5378;53.206;13.316;2023-07-20T15:06:46;3.43;;;0.97;;
10659;SDS011;5378;53.206;13.316;2023-07-20T15:09:33;1.37;;;0.73;;
10659;SDS011;5378;53.206;13.316;2023-07-20T15:12:20;2.10;;;0.80;;
10659;SDS011;5378;53.206;13.316;2023-07-20T15:15:08;2.10;;;1.00;;
10659;SDS011;5378;53.206;13.316;2023-07-20T15:17:57;16.43;;;1.00;;
10659;SDS011;5378;53.206;13.316;2023-07-20T15:20:45;1.20;;;0.70;;
10659;SDS011;5378;53.206;13.316;2023-07-20T15:23:33;0.90;;;0.63;;
10659;SDS011;5378;53.206;13.316;2023-07-20T15:26:21;1.57;;;0.83;;
10659;SDS011;5378;53.206;13.316;2023-07-20T15:29:08;1.40;;;0.97;;
10659;SDS011;5378;53.206;13.316;2023-07-20T15:32:15;0.80;;;0.70;;
10659;SDS011;5378;53.206;13.316;2023-07-20T15:35:06;0.80;;;0.50;;
10659;SDS011;5378;53.206;13.316;2023-07-20T15:37:54;6.43;;;0.80;;
10659;SDS011;5378;53.206;13.316;2023-07-20T15:40:42;1.20;;;0.70;;
10659;SDS011;5378;53.206;13.316;2023-07-20T15:43:30;1.50;;;0.43;;
10659;SDS011;5378;53.206;13.316;2023-07-20T15:49:33;0.90;;;0.70;;
10659;SDS011;5378;53.206;13.316;2023-07-20T15:52:22;2.20;;;0.50;;
10659;SDS011;5378;53.206;13.316;2023-07-20T15:55:09;1.90;;;0.50;;
10659;SDS011;5378;53.206;13.316;2023-07-20T15:57:57;1.27;;;0.47;;
10659;SDS011;5378;53.206;13.316;2023-07-20T16:00:44;1.10;;;0.50;;
10659;SDS011;5378;53.206;13.316;2023-07-20T16:03:31;10.47;;;0.67;;
10659;SDS011;5378;53.206;13.316;2023-07-20T16:06:21;8.10;;;0.70;;
10659;SDS011;5378;53.206;13.316;2023-07-20T16:09:10;4.53;;;0.67;;
10659;SDS011;5378;53.206;13.316;2023-07-20T16:11:57;0.90;;;0.40;;
10659;SDS011;5378;53.206;13.316;2023-07-20T16:14:44;2.37;;;0.50;;
10659;SDS011;5378;53.206;13.316;2023-07-20T16:17:34;1.20;;;0.50;;
10659;SDS011;5378;53.206;13.316;2023-07-20T16:20:21;4.93;;;0.70;;
10659;SDS011;5378;53.206;13.316;2023-07-20T16:23:08;0.90;;;0.57;;
10659;SDS011;5378;53.206;13.316;2023-07-20T16:25:57;1.63;;;0.70;;
10659;SDS011;5378;53.206;13.316;2023-07-20T16:28:44;0.60;;;0.40;;
10659;SDS011;5378;53.206;13.316;2023-07-20T16:31:31;3.33;;;0.50;;
10659;SDS011;5378;53.206;13.316;2023-07-20T16:34:19;2.67;;;0.50;;
10659;SDS011;5378;53.206;13.316;2023-07-20T16:37:09;1.20;;;0.43;;
10659;SDS011;5378;53.206;13.316;2023-07-20T16:39:59;1.03;;;0.43;;
10659;SDS011;5378;53.206;13.316;2023-07-20T16:42:47;1.20;;;0.53;;
10659;SDS011;5378;53.206;13.316;2023-07-20T16:45:37;2.03;;;0.60;;
10659;SDS011;5378;53.206;13.316;2023-07-20T16:48:25;0.70;;;0.50;;
10659;SDS011;5378;53.206;13.316;2023-07-20T16:51:12;0.60;;;0.30;;
10659;SDS011;5378;53.206;13.316;2023-07-20T16:53:59;1.43;;;0.40;;
10659;SDS011;5378;53.206;13.316;2023-07-20T16:56:47;0.80;;;0.50;;
10659;SDS011;5378;53.206;13.316;2023-07-20T16:59:36;0.87;;;0.50;;